createdAt,value
2023-01-17T00:02:10.561Z,66.21
2023-01-17T00:04:56.196Z,66.17
2023-01-17T00:07:44.326Z,65.92
2023-01-17T00:10:15.834Z,65.66
2023-01-17T00:12:49.096Z,66.25
2023-01-17T00:15:19.942Z,66.52
2023-01-17T00:17:48.884Z,66.96
2023-01-17T00:20:35.928Z,66.38
2023-01-17T00:23:26.275Z,66.26
2023-01-17T00:26:07.050Z,66.21
2023-01-17T00:28:36.711Z,66.23
2023-01-17T00:31:05.001Z,65.02
2023-01-17T00:33:32.273Z,65.32
2023-01-17T00:36:00.365Z,66.25
2023-01-17T00:38:30.844Z,66.42
2023-01-17T00:41:02.594Z,66.80
2023-01-17T00:43:49.108Z,66.49
2023-01-17T00:46:35.144Z,66.84
2023-01-17T00:49:20.567Z,67.07
2023-01-17T00:52:06.163Z,67.08
2023-01-17T00:54:53.247Z,66.68
2023-01-17T00:57:38.731Z,66.33
2023-01-17T01:00:25.607Z,66.83
2023-01-17T01:03:11.138Z,66.46
2023-01-17T01:05:57.483Z,66.74
2023-01-17T01:08:44.847Z,66.51
2023-01-17T01:11:34.992Z,66.82
2023-01-17T01:14:21.162Z,66.85
2023-01-17T01:17:07.188Z,66.59
2023-01-17T01:19:53.083Z,66.44
2023-01-17T01:22:38.829Z,67.20
2023-01-17T01:25:25.493Z,67.25
2023-01-17T01:28:20.934Z,67.73
2023-01-17T01:31:06.743Z,67.55
2023-01-17T01:33:33.823Z,67.29
2023-01-17T01:36:02.209Z,66.37
2023-01-17T01:38:30.517Z,66.39
2023-01-17T01:40:58.813Z,66.56
2023-01-17T01:43:45.012Z,66.88
2023-01-17T01:46:16.580Z,67.26
2023-01-17T01:48:50.308Z,66.70
2023-01-17T01:51:20.875Z,66.44
2023-01-17T01:53:52.659Z,67.02
2023-01-17T01:56:23.916Z,67.13
2023-01-17T01:58:55.130Z,66.19
2023-01-17T02:01:23.526Z,66.23
2023-01-17T02:03:52.527Z,66.52
2023-01-17T02:06:32.008Z,66.79
2023-01-17T02:09:07.703Z,66.88
2023-01-17T02:11:38.626Z,66.61
2023-01-17T02:14:08.567Z,67.06
2023-01-17T02:16:54.820Z,66.62
2023-01-17T02:19:55.264Z,65.23
2023-01-17T02:22:50.814Z,66.12
2023-01-17T02:25:49.513Z,65.92
2023-01-17T02:28:37.447Z,66.16
2023-01-17T02:31:15.837Z,66.36
2023-01-17T02:33:52.533Z,65.75
2023-01-17T02:36:26.149Z,66.39
2023-01-17T02:38:58.595Z,66.40
2023-01-17T02:41:32.528Z,66.26
2023-01-17T02:44:03.200Z,66.53
2023-01-17T02:46:33.005Z,66.47
2023-01-17T02:49:01.780Z,66.46
2023-01-17T02:52:05.881Z,65.90
2023-01-17T02:54:53.431Z,65.83
2023-01-17T02:57:37.772Z,65.31
2023-01-17T03:00:15.550Z,65.99
2023-01-17T03:02:54.180Z,66.25
2023-01-17T03:05:29.088Z,66.08
2023-01-17T03:07:58.136Z,65.67
2023-01-17T03:10:26.484Z,65.88
2023-01-17T03:12:59.061Z,64.79
2023-01-17T03:15:27.815Z,64.58
2023-01-17T03:18:02.855Z,65.32
2023-01-17T03:20:31.273Z,66.27
2023-01-17T03:22:59.659Z,66.47
2023-01-17T03:25:27.932Z,66.46
2023-01-17T03:27:56.343Z,66.47
2023-01-17T03:30:24.766Z,65.81
2023-01-17T03:32:53.253Z,65.99
2023-01-17T03:35:23.247Z,66.13
2023-01-17T03:37:51.518Z,66.41
2023-01-17T03:40:19.954Z,66.32
2023-01-17T03:42:48.324Z,66.44
2023-01-17T03:45:16.842Z,66.10
2023-01-17T03:47:45.231Z,66.29
2023-01-17T03:50:14.234Z,66.20
2023-01-17T03:52:44.306Z,65.13
2023-01-17T03:55:12.661Z,65.86
2023-01-17T03:57:41.058Z,65.83
2023-01-17T04:00:11.036Z,66.02
2023-01-17T04:02:39.458Z,65.89
2023-01-17T04:05:08.107Z,65.24
2023-01-17T04:07:36.438Z,65.50
2023-01-17T04:10:07.308Z,65.50
2023-01-17T04:12:35.686Z,65.45
2023-01-17T04:15:03.977Z,65.37
2023-01-17T04:17:32.422Z,65.38
2023-01-17T04:20:00.853Z,64.99
2023-01-17T04:22:29.173Z,64.31
2023-01-17T04:24:57.561Z,64.39
2023-01-17T04:27:27.428Z,64.50
2023-01-17T04:29:55.782Z,64.72
2023-01-17T04:32:24.090Z,64.33
2023-01-17T04:34:52.412Z,64.03
2023-01-17T04:37:20.834Z,64.35
2023-01-17T04:39:49.125Z,64.54
2023-01-17T04:42:17.432Z,64.11
2023-01-17T04:44:47.085Z,64.27
2023-01-17T04:47:15.531Z,64.66
2023-01-17T04:49:44.277Z,65.14
2023-01-17T04:52:12.832Z,65.15
2023-01-17T04:54:41.093Z,65.46
2023-01-17T04:57:09.393Z,65.14
2023-01-17T04:59:37.693Z,65.38
2023-01-17T05:02:07.568Z,64.98
2023-01-17T05:04:35.959Z,65.07
2023-01-17T05:07:04.358Z,64.26
2023-01-17T05:09:32.766Z,64.49
2023-01-17T05:12:01.133Z,64.45
2023-01-17T05:14:29.376Z,64.58
2023-01-17T05:16:58.463Z,64.74
2023-01-17T05:19:28.821Z,63.11
2023-01-17T05:22:04.161Z,63.39
2023-01-17T05:24:32.696Z,63.76
2023-01-17T05:27:03.349Z,63.60
2023-01-17T05:29:32.018Z,63.65
2023-01-17T05:32:00.461Z,63.34
2023-01-17T05:34:30.364Z,63.12
2023-01-17T05:36:58.782Z,62.77
2023-01-17T05:39:27.236Z,63.12
2023-01-17T05:41:55.700Z,62.96
2023-01-17T05:44:24.129Z,63.21
2023-01-17T05:46:52.571Z,63.26
2023-01-17T05:49:20.914Z,63.05
2023-01-17T05:51:51.680Z,62.47
2023-01-17T05:54:20.683Z,61.93
2023-01-17T05:56:48.977Z,62.10
2023-01-17T05:59:28.581Z,62.61
2023-01-17T06:02:04.448Z,62.84
2023-01-17T06:04:33.204Z,62.68
2023-01-17T06:07:02.975Z,61.99
2023-01-17T06:09:31.285Z,61.94
2023-01-17T06:11:59.688Z,62.27
2023-01-17T06:14:27.970Z,62.37
2023-01-17T06:16:56.303Z,62.32
2023-01-17T06:19:24.629Z,62.33
2023-01-17T06:21:52.979Z,62.15
2023-01-17T06:24:22.710Z,62.23
2023-01-17T06:26:51.094Z,62.41
2023-01-17T06:29:19.384Z,62.26
2023-01-17T06:31:48.086Z,61.84
2023-01-17T06:34:16.345Z,61.68
2023-01-17T06:36:44.734Z,61.73
2023-01-17T06:39:15.063Z,61.96
2023-01-17T06:41:45.507Z,60.79
2023-01-17T06:44:13.937Z,59.17
2023-01-17T06:46:42.587Z,59.20
2023-01-17T06:49:10.982Z,60.21
2023-01-17T06:51:39.325Z,60.96
2023-01-17T06:54:07.922Z,60.37
2023-01-17T06:56:36.272Z,60.54
2023-01-17T06:59:06.393Z,60.91
2023-01-17T07:01:34.930Z,60.96
2023-01-17T07:04:05.198Z,60.78
2023-01-17T07:06:33.562Z,60.77
2023-01-17T07:09:01.901Z,60.59
2023-01-17T07:11:30.221Z,59.94
2023-01-17T07:13:58.552Z,59.48
2023-01-17T07:16:28.479Z,59.51
2023-01-17T07:18:58.299Z,59.81
2023-01-17T07:21:26.662Z,59.90
2023-01-17T07:23:54.997Z,59.48
2023-01-17T07:26:23.318Z,60.07
2023-01-17T07:28:51.687Z,59.81
2023-01-17T07:31:20.026Z,60.48
2023-01-17T07:33:49.809Z,60.21
2023-01-17T07:36:18.153Z,60.28
2023-01-17T07:38:47.789Z,60.46
2023-01-17T07:41:16.126Z,60.04
2023-01-17T07:43:44.425Z,60.11
2023-01-17T07:46:15.370Z,60.02
2023-01-17T07:48:43.908Z,60.24
2023-01-17T07:51:13.633Z,60.36
2023-01-17T07:53:41.995Z,60.23
2023-01-17T07:56:10.648Z,60.07
2023-01-17T07:58:39.018Z,60.25
2023-01-17T08:01:09.735Z,60.37
2023-01-17T08:03:40.294Z,57.96
2023-01-17T08:06:17.391Z,59.02
2023-01-17T08:08:46.193Z,59.09
2023-01-17T08:11:14.739Z,59.27
2023-01-17T08:13:43.069Z,59.06
2023-01-17T08:16:12.180Z,58.01
2023-01-17T08:18:41.120Z,58.29
2023-01-17T08:21:16.988Z,58.25
2023-01-17T08:23:48.539Z,58.63
2023-01-17T08:26:21.489Z,58.72
2023-01-17T08:28:50.708Z,58.55
2023-01-17T08:31:20.075Z,58.56
2023-01-17T08:33:48.406Z,58.13
2023-01-17T08:36:18.322Z,58.53
2023-01-17T08:38:46.688Z,58.36
2023-01-17T08:41:15.112Z,58.51
2023-01-17T08:43:43.709Z,58.94
2023-01-17T08:46:12.089Z,58.42
2023-01-17T08:48:40.472Z,58.10
2023-01-17T08:51:08.857Z,57.91
2023-01-17T08:53:38.744Z,57.32
2023-01-17T08:56:07.748Z,56.52
2023-01-17T08:58:36.292Z,56.98
2023-01-17T09:01:06.665Z,57.45
2023-01-17T09:03:38.394Z,56.91
2023-01-17T09:06:11.221Z,57.43
2023-01-17T09:08:41.933Z,57.39
2023-01-17T09:11:12.289Z,57.83
2023-01-17T09:13:41.202Z,57.90
2023-01-17T09:16:09.858Z,58.14
2023-01-17T09:18:38.973Z,57.88
2023-01-17T09:21:15.076Z,58.10
2023-01-17T09:23:45.473Z,58.22
2023-01-17T09:26:20.500Z,58.13
2023-01-17T09:28:49.090Z,57.77
2023-01-17T09:31:17.925Z,57.03
2023-01-17T09:33:46.483Z,57.85
2023-01-17T09:36:15.281Z,58.14
2023-01-17T09:38:45.669Z,58.65
2023-01-17T09:41:27.752Z,58.54
2023-01-17T09:44:02.785Z,58.79
2023-01-17T09:46:33.706Z,58.93
2023-01-17T09:49:09.693Z,58.58
2023-01-17T09:51:38.505Z,58.71
2023-01-17T09:54:20.419Z,58.43
2023-01-17T09:56:58.737Z,58.87
2023-01-17T09:59:34.982Z,58.75
2023-01-17T10:02:18.935Z,58.66
2023-01-17T10:05:05.191Z,58.89
2023-01-17T10:07:47.200Z,58.70
2023-01-17T10:10:30.073Z,58.39
2023-01-17T10:13:05.494Z,58.03
2023-01-17T10:15:55.417Z,58.19
2023-01-17T10:18:56.336Z,58.16
2023-01-17T10:21:33.179Z,58.12
2023-01-17T10:24:32.339Z,57.97
2023-01-17T10:27:03.600Z,58.25
2023-01-17T10:29:36.566Z,58.34
2023-01-17T10:32:05.024Z,58.25
2023-01-17T10:34:37.831Z,58.37
2023-01-17T10:37:17.495Z,58.09
2023-01-17T10:39:48.884Z,58.36
2023-01-17T10:42:25.202Z,58.15
2023-01-17T10:45:00.740Z,58.37
2023-01-17T10:47:33.897Z,58.43
2023-01-17T10:50:06.073Z,58.56
2023-01-17T10:52:45.385Z,58.19
2023-01-17T10:55:29.242Z,58.40
2023-01-17T10:57:59.380Z,58.72
2023-01-17T11:00:44.148Z,58.95
2023-01-17T11:03:14.287Z,59.09
2023-01-17T11:05:43.748Z,59.23
2023-01-17T11:08:14.379Z,59.20
2023-01-17T11:10:48.403Z,59.02
2023-01-17T11:13:30.780Z,58.87
2023-01-17T11:16:02.589Z,58.99
2023-01-17T11:18:32.841Z,59.28
2023-01-17T11:21:12.343Z,58.98
2023-01-17T11:23:43.466Z,59.15
2023-01-17T11:26:14.397Z,58.86
2023-01-17T11:28:44.200Z,58.53
2023-01-17T11:31:27.733Z,57.82
2023-01-17T11:34:17.196Z,58.54
2023-01-17T11:36:46.693Z,58.59
2023-01-17T11:39:27.720Z,58.65
2023-01-17T11:41:56.367Z,58.84
2023-01-17T11:44:28.641Z,58.73
2023-01-17T11:47:19.448Z,58.41
2023-01-17T11:49:49.510Z,58.53
2023-01-17T11:52:25.491Z,58.82
2023-01-17T11:54:56.424Z,58.70
2023-01-17T11:57:27.685Z,58.80
2023-01-17T12:00:11.975Z,58.83
2023-01-17T12:03:07.554Z,58.82
2023-01-17T12:05:59.958Z,58.94
2023-01-17T12:08:46.339Z,58.84
2023-01-17T12:11:19.812Z,58.85
2023-01-17T12:14:03.104Z,58.61
2023-01-17T12:16:49.251Z,58.91
2023-01-17T12:19:34.733Z,58.78
2023-01-17T12:22:17.415Z,59.07
2023-01-17T12:25:24.747Z,58.64
2023-01-17T12:28:16.793Z,58.71
2023-01-17T12:31:00.396Z,58.83
2023-01-17T12:33:39.450Z,58.83
2023-01-17T12:36:17.732Z,58.86
2023-01-17T12:38:48.857Z,58.73
2023-01-17T12:41:23.560Z,58.63
2023-01-17T12:43:56.718Z,58.74
2023-01-17T12:46:31.702Z,58.57
2023-01-17T12:49:06.003Z,58.28
2023-01-17T12:51:40.549Z,58.30
2023-01-17T12:54:17.297Z,58.01
2023-01-17T12:56:50.387Z,58.25
2023-01-17T12:59:27.174Z,57.99
2023-01-17T13:01:58.777Z,58.02
2023-01-17T13:04:37.294Z,57.85
2023-01-17T13:07:19.842Z,57.74
2023-01-17T13:09:54.069Z,57.34
2023-01-17T13:12:24.204Z,57.64
2023-01-17T13:14:52.525Z,57.60
2023-01-17T13:17:32.901Z,57.22
2023-01-17T13:20:09.902Z,57.08
2023-01-17T13:22:40.412Z,57.05
2023-01-17T13:25:22.748Z,57.12
2023-01-17T13:28:04.653Z,56.85
2023-01-17T13:30:54.435Z,56.82
2023-01-17T13:33:42.554Z,57.02
2023-01-17T13:36:38.074Z,56.72
2023-01-17T13:39:27.227Z,56.72
2023-01-17T13:42:10.957Z,56.79
2023-01-17T13:44:39.575Z,56.96
2023-01-17T13:47:40.554Z,56.52
2023-01-17T13:50:47.348Z,56.67
2023-01-17T13:53:58.058Z,56.45
2023-01-17T13:56:36.287Z,56.53
2023-01-17T13:59:34.487Z,56.37
2023-01-17T14:02:03.648Z,56.80
2023-01-17T14:05:09.255Z,56.72
2023-01-17T14:07:44.373Z,56.96
2023-01-17T14:10:37.878Z,56.51
2023-01-17T14:13:26.807Z,56.70
2023-01-17T14:15:55.467Z,56.83
2023-01-17T14:18:35.301Z,56.70
2023-01-17T14:21:12.030Z,56.77
2023-01-17T14:24:15.529Z,56.56
2023-01-17T14:26:47.256Z,56.93
2023-01-17T14:29:50.965Z,56.42
2023-01-17T14:32:21.836Z,57.05
2023-01-17T14:34:52.347Z,56.94
2023-01-17T14:37:31.816Z,56.71
2023-01-17T14:40:01.471Z,56.91
2023-01-17T14:42:31.855Z,56.86
2023-01-17T14:45:05.765Z,56.79
2023-01-17T14:47:39.420Z,56.71
2023-01-17T14:50:11.537Z,56.65
2023-01-17T14:52:39.825Z,56.97
2023-01-17T14:55:17.019Z,56.74
2023-01-17T14:57:54.813Z,56.85
2023-01-17T15:00:29.367Z,56.92
2023-01-17T15:03:00.774Z,57.20
2023-01-17T15:05:31.466Z,57.04
2023-01-17T15:08:00.583Z,57.14
2023-01-17T15:10:32.382Z,57.37
2023-01-17T15:13:09.160Z,57.36
2023-01-17T15:15:42.340Z,57.55
2023-01-17T15:18:19.558Z,57.49
2023-01-17T15:20:53.208Z,57.67
2023-01-17T15:23:22.378Z,58.14
2023-01-17T15:25:52.711Z,57.99
2023-01-17T15:28:21.567Z,58.04
2023-01-17T15:31:09.931Z,57.78
2023-01-17T15:33:41.148Z,58.29
2023-01-17T15:36:25.977Z,58.29
2023-01-17T15:38:59.678Z,58.22
2023-01-17T15:41:30.192Z,58.39
2023-01-17T15:43:58.950Z,58.27
2023-01-17T15:46:33.229Z,58.26
2023-01-17T15:49:19.398Z,58.47
2023-01-17T15:51:53.923Z,58.46
2023-01-17T15:54:36.917Z,58.35
2023-01-17T15:57:14.880Z,58.44
2023-01-17T15:59:46.699Z,58.48
2023-01-17T16:02:50.126Z,58.69
2023-01-17T16:05:43.976Z,58.64
2023-01-17T16:08:39.749Z,58.81
2023-01-17T16:11:09.837Z,58.95
2023-01-17T16:13:42.355Z,59.05
2023-01-17T16:16:20.732Z,59.04
2023-01-17T16:18:56.127Z,58.85
2023-01-17T16:21:27.137Z,58.79
2023-01-17T16:23:55.797Z,59.17
2023-01-17T16:26:24.340Z,59.26
2023-01-17T16:28:53.265Z,59.20
2023-01-17T16:31:21.898Z,59.35
2023-01-17T16:33:52.320Z,59.14
2023-01-17T16:36:23.048Z,58.98
2023-01-17T16:38:53.706Z,58.89
2023-01-17T16:41:22.378Z,58.89
2023-01-17T16:44:02.000Z,58.83
2023-01-17T16:46:30.958Z,59.14
2023-01-17T16:49:02.514Z,59.13
2023-01-17T16:51:30.944Z,59.03
2023-01-17T16:53:59.664Z,59.30
2023-01-17T16:56:28.083Z,59.10
2023-01-17T16:58:56.891Z,59.10
2023-01-17T17:01:25.549Z,59.31
2023-01-17T17:03:54.033Z,59.32
2023-01-17T17:06:24.571Z,59.86
2023-01-17T17:08:52.877Z,59.97
2023-01-17T17:11:24.724Z,59.96
2023-01-17T17:13:53.720Z,59.41
2023-01-17T17:16:26.593Z,59.94
2023-01-17T17:19:00.234Z,60.01
2023-01-17T17:21:30.045Z,60.50
2023-01-17T17:23:59.979Z,59.86
2023-01-17T17:26:32.262Z,59.76
2023-01-17T17:29:02.093Z,59.60
2023-01-17T17:31:30.702Z,59.67
2023-01-17T17:34:00.609Z,59.75
2023-01-17T17:36:31.929Z,59.99
2023-01-17T17:39:01.966Z,60.28
2023-01-17T17:41:32.027Z,60.52
2023-01-17T17:44:03.209Z,60.25
2023-01-17T17:46:33.950Z,60.16
2023-01-17T17:49:03.047Z,60.30
2023-01-17T17:51:35.682Z,60.21
2023-01-17T17:54:07.242Z,60.38
2023-01-17T17:56:36.855Z,60.26
2023-01-17T17:59:09.150Z,60.35
2023-01-17T18:01:38.335Z,59.96
2023-01-17T18:04:09.323Z,60.54
2023-01-17T18:06:39.960Z,60.49
2023-01-17T18:09:09.328Z,60.23
2023-01-17T18:11:39.836Z,60.91
2023-01-17T18:14:10.408Z,60.72
2023-01-17T18:16:41.867Z,60.64
2023-01-17T18:19:14.720Z,60.50
2023-01-17T18:21:44.847Z,60.71
2023-01-17T18:24:14.835Z,60.42
2023-01-17T18:26:45.299Z,60.78
2023-01-17T18:29:16.011Z,60.33
2023-01-17T18:31:45.786Z,60.54
2023-01-17T18:34:16.414Z,60.64
2023-01-17T18:36:46.215Z,60.75
2023-01-17T18:39:16.561Z,61.09
2023-01-17T18:41:45.083Z,60.76
2023-01-17T18:44:13.809Z,61.06
2023-01-17T18:46:43.390Z,61.07
2023-01-17T18:49:13.384Z,60.98
2023-01-17T18:51:42.951Z,60.89
2023-01-17T18:54:13.250Z,61.15
2023-01-17T18:56:42.554Z,60.94
2023-01-17T18:59:13.021Z,61.01
2023-01-17T19:01:43.852Z,60.63
2023-01-17T19:04:14.377Z,60.54
2023-01-17T19:06:45.083Z,60.59
2023-01-17T19:09:16.643Z,60.58
2023-01-17T19:11:45.657Z,60.71
2023-01-17T19:14:14.598Z,60.61
2023-01-17T19:16:43.689Z,61.10
2023-01-17T19:19:14.817Z,60.52
2023-01-17T19:21:43.536Z,60.73
2023-01-17T19:24:13.320Z,60.34
2023-01-17T19:26:43.691Z,60.29
2023-01-17T19:29:12.692Z,60.91
2023-01-17T19:31:43.713Z,60.72
2023-01-17T19:34:13.971Z,60.57
2023-01-17T19:36:42.828Z,60.77
2023-01-17T19:39:11.790Z,60.77
2023-01-17T19:41:46.058Z,60.98
2023-01-17T19:44:15.917Z,60.92
2023-01-17T19:46:46.230Z,60.38
2023-01-17T19:49:16.459Z,60.55
2023-01-17T19:51:44.942Z,60.71
2023-01-17T19:54:15.297Z,60.49
2023-01-17T19:56:43.697Z,60.67
2023-01-17T19:59:14.137Z,60.46
2023-01-17T20:01:42.831Z,60.94
2023-01-17T20:04:12.913Z,60.53
2023-01-17T20:06:41.353Z,60.76
2023-01-17T20:09:09.867Z,60.57
2023-01-17T20:11:42.293Z,60.84
2023-01-17T20:14:16.706Z,60.73
2023-01-17T20:16:47.629Z,60.58
2023-01-17T20:19:15.981Z,60.61
2023-01-17T20:21:44.675Z,60.78
2023-01-17T20:24:13.699Z,61.02
2023-01-17T20:26:44.312Z,61.15
2023-01-17T20:29:16.089Z,60.72
2023-01-17T20:31:45.964Z,60.71
2023-01-17T20:34:19.719Z,60.76
2023-01-17T20:36:48.389Z,60.60
2023-01-17T20:39:17.470Z,60.95
2023-01-17T20:41:46.599Z,60.97
2023-01-17T20:44:19.014Z,60.70
2023-01-17T20:46:48.343Z,61.12
2023-01-17T20:49:18.947Z,61.00
2023-01-17T20:51:47.996Z,60.60
2023-01-17T20:54:18.347Z,60.92
2023-01-17T20:56:48.044Z,61.18
2023-01-17T20:59:20.204Z,61.09
2023-01-17T21:01:49.017Z,60.83
2023-01-17T21:04:20.170Z,60.93
2023-01-17T21:06:51.718Z,61.06
2023-01-17T21:09:21.420Z,61.21
2023-01-17T21:11:50.823Z,61.17
2023-01-17T21:14:21.794Z,60.89
2023-01-17T21:16:51.460Z,61.48
2023-01-17T21:19:20.656Z,61.04
2023-01-17T21:21:50.260Z,60.91
2023-01-17T21:24:19.688Z,61.61
2023-01-17T21:26:51.550Z,61.36
2023-01-17T21:29:21.278Z,61.15
2023-01-17T21:31:49.581Z,61.18
2023-01-17T21:34:17.936Z,61.03
2023-01-17T21:36:46.287Z,61.04
2023-01-17T21:39:17.334Z,61.08
2023-01-17T21:41:48.042Z,61.38
2023-01-17T21:44:19.484Z,60.74
2023-01-17T21:46:54.284Z,61.06
2023-01-17T21:49:24.367Z,61.04
2023-01-17T21:52:10.199Z,61.03
2023-01-17T21:54:55.608Z,60.67
2023-01-17T21:57:41.852Z,60.96
2023-01-17T22:00:14.600Z,60.97
2023-01-17T22:02:44.992Z,60.96
2023-01-17T22:05:13.651Z,60.68
2023-01-17T22:08:03.259Z,60.88
2023-01-17T22:10:33.662Z,60.52
2023-01-17T22:13:02.035Z,60.83
2023-01-17T22:15:30.472Z,60.72
2023-01-17T22:18:00.550Z,61.08
2023-01-17T22:20:29.280Z,60.66
2023-01-17T22:22:57.890Z,61.45
2023-01-17T22:25:26.566Z,61.32
2023-01-17T22:27:55.212Z,60.50
2023-01-17T22:30:23.719Z,60.51
2023-01-17T22:32:52.071Z,60.75
2023-01-17T22:35:21.817Z,60.69
2023-01-17T22:37:50.253Z,60.96
2023-01-17T22:40:19.143Z,60.96
2023-01-17T22:42:47.545Z,60.94
2023-01-17T22:45:17.472Z,61.26
2023-01-17T22:47:45.789Z,60.81
2023-01-17T22:50:14.493Z,60.56
2023-01-17T22:52:44.294Z,60.99
2023-01-17T22:55:12.756Z,60.85
2023-01-17T22:57:41.192Z,60.72
2023-01-17T23:00:14.686Z,60.32
2023-01-17T23:02:43.475Z,60.88
2023-01-17T23:05:12.057Z,60.74
2023-01-17T23:07:44.328Z,60.74
2023-01-17T23:10:36.332Z,60.70
2023-01-17T23:13:04.720Z,60.64
2023-01-17T23:15:50.389Z,60.81
2023-01-17T23:18:44.434Z,60.50
2023-01-17T23:21:12.771Z,60.81
2023-01-17T23:23:41.198Z,61.05
2023-01-17T23:26:10.939Z,60.89
2023-01-17T23:28:38.198Z,60.55
2023-01-17T23:31:08.729Z,61.15
2023-01-17T23:33:37.119Z,61.21
2023-01-17T23:36:09.390Z,60.98
2023-01-17T23:38:40.782Z,60.75
2023-01-17T23:41:28.727Z,60.99
2023-01-17T23:43:59.195Z,61.06
2023-01-17T23:46:30.230Z,60.97
2023-01-17T23:48:58.626Z,60.86
2023-01-17T23:51:26.932Z,61.06
2023-01-17T23:54:05.499Z,61.06
2023-01-17T23:56:35.389Z,61.12
2023-01-17T23:59:04.601Z,61.20
